Time;durP1;ratioP1;P1;durP2;ratioP2;P2;SDS_P1;SDS_P2;PMS_P1;PMS_P2;Temp;Humidity;BMP_temperature;BMP_pressure;BME280_temperature;BME280_humidity;BME280_pressure;Samples;Min_cycle;Max_cycle;Signal;HPM_P1;HPM_P2
2023/04/17 00:02:25;;;;;;;14.27;9.97;;;;;;;8.09;100.00;96593.47;6180732;23;20016;-87
2023/04/17 00:04:51;;;;;;;14.00;10.27;;;;;;;7.98;100.00;96589.16;6157615;23;20017;-87
2023/04/17 00:07:21;;;;;;;12.80;8.83;;;;;;;8.07;100.00;96585.72;6179850;23;20012;-87
2023/04/17 00:09:49;;;;;;;14.30;9.43;;;;;;;8.13;100.00;96581.75;6181674;23;20021;-88
2023/04/17 00:12:15;;;;;;;13.73;9.60;;;;;;;8.14;100.00;96584.22;6181067;23;20017;-87
2023/04/17 00:14:41;;;;;;;14.23;10.03;;;;;;;8.04;100.00;96584.19;6181404;23;20056;-87
2023/04/17 00:17:06;;;;;;;12.77;9.17;;;;;;;8.12;100.00;96586.16;6181001;23;20013;-87
2023/04/17 00:19:32;;;;;;;13.23;9.53;;;;;;;8.24;100.00;96584.25;6156276;23;20017;-87
2023/04/17 00:21:57;;;;;;;14.40;9.90;;;;;;;8.07;100.00;96588.34;6155767;23;20013;-87
2023/04/17 00:24:23;;;;;;;16.47;11.23;;;;;;;8.08;100.00;96584.78;6155991;23;20013;-87
2023/04/17 00:26:49;;;;;;;14.87;10.40;;;;;;;8.16;100.00;96584.09;6155952;23;20066;-87
2023/04/17 00:29:15;;;;;;;14.03;9.80;;;;;;;8.20;100.00;96583.69;6156282;23;20021;-87
2023/04/17 00:31:43;;;;;;;14.33;9.67;;;;;;;8.22;100.00;96583.56;6179507;23;20425;-87
2023/04/17 00:34:08;;;;;;;14.30;10.07;;;;;;;8.19;100.00;96575.97;6156468;23;20051;-89
2023/04/17 00:36:34;;;;;;;12.63;9.23;;;;;;;8.20;100.00;96577.63;6155826;23;20021;-87
2023/04/17 00:39:00;;;;;;;11.67;8.80;;;;;;;8.03;100.00;96586.97;6157012;23;20013;-87
2023/04/17 00:41:25;;;;;;;12.57;9.37;;;;;;;8.15;100.00;96578.03;6181509;23;20017;-87
2023/04/17 00:43:51;;;;;;;15.83;10.47;;;;;;;8.18;100.00;96580.41;6180022;23;20017;-87
2023/04/17 00:46:21;;;;;;;14.93;10.40;;;;;;;8.13;100.00;96573.91;6156592;23;20088;-88
2023/04/17 00:48:47;;;;;;;27.20;16.57;;;;;;;8.02;100.00;96585.31;6180804;23;20028;-87
2023/04/17 00:51:13;;;;;;;29.87;18.57;;;;;;;8.08;100.00;96576.06;6177206;23;20020;-87
2023/04/17 00:53:40;;;;;;;31.23;19.67;;;;;;;8.14;100.00;96572.91;6178353;23;20091;-87
2023/04/17 00:56:06;;;;;;;29.93;18.00;;;;;;;8.00;100.00;96574.16;6156676;23;20039;-88
2023/04/17 00:58:34;;;;;;;22.80;13.33;;;;;;;8.06;100.00;96570.16;6154868;23;20016;-87
2023/04/17 01:01:00;;;;;;;20.53;13.97;;;;;;;7.90;100.00;96575.91;6154833;23;20008;-87
2023/04/17 01:03:28;;;;;;;17.27;12.97;;;;;;;7.92;100.00;96571.38;6155812;23;20055;-88
2023/04/17 01:05:55;;;;;;;14.70;10.60;;;;;;;7.80;100.00;96574.09;6131853;23;20016;-87
2023/04/17 01:08:21;;;;;;;14.33;9.57;;;;;;;7.77;100.00;96571.75;6180160;23;20013;-88
2023/04/17 01:10:47;;;;;;;14.50;11.70;;;;;;;7.77;100.00;96571.75;6180511;23;20031;-88
2023/04/17 01:13:12;;;;;;;17.57;10.23;;;;;;;7.70;100.00;96575.84;6179837;23;20072;-87
2023/04/17 01:15:40;;;;;;;15.07;10.37;;;;;;;7.68;100.00;96569.94;6181275;23;20009;-87
2023/04/17 01:18:11;;;;;;;12.20;8.97;;;;;;;7.83;100.00;96567.75;6156005;23;20027;-88
2023/04/17 01:20:36;;;;;;;12.77;8.93;;;;;;;7.92;100.00;96568.75;6180873;23;20143;-88
2023/04/17 01:23:02;;;;;;;16.23;9.97;;;;;;;7.79;100.00;96569.81;6181270;23;20024;-88
2023/04/17 01:25:28;;;;;;;14.23;10.50;;;;;;;7.66;100.00;96561.38;6184056;23;20008;-88
2023/04/17 01:27:55;;;;;;;16.53;11.57;;;;;;;7.80;100.00;96565.41;6159383;23;20001;-88
2023/04/17 01:30:21;;;;;;;16.77;11.43;;;;;;;7.73;100.00;96566.91;6173534;23;20060;-88
2023/04/17 01:32:54;;;;;;;14.83;10.17;;;;;;;7.78;100.00;96572.59;6156567;23;20013;-88
2023/04/17 01:35:22;;;;;;;20.63;12.37;;;;;;;7.73;100.00;96565.13;6156300;23;20020;-88
2023/04/17 01:37:47;;;;;;;17.37;12.30;;;;;;;7.69;100.00;96565.53;6155387;23;20017;-88
2023/04/17 01:40:13;;;;;;;15.33;11.20;;;;;;;7.64;100.00;96568.53;6156764;23;20088;-88
2023/04/17 01:42:39;;;;;;;16.20;11.27;;;;;;;7.77;100.00;96571.75;6155925;23;20051;-87
2023/04/17 01:45:05;;;;;;;16.43;11.10;;;;;;;7.73;100.00;96565.13;6181451;23;20013;-89
2023/04/17 01:47:32;;;;;;;15.40;10.73;;;;;;;7.79;100.00;96569.81;6155609;23;20063;-89
2023/04/17 01:49:58;;;;;;;16.03;11.13;;;;;;;7.70;100.00;96564.56;6156089;23;20016;-89
2023/04/17 01:52:24;;;;;;;14.70;10.83;;;;;;;7.75;100.00;96563.22;6180623;23;20330;-88
2023/04/17 01:54:49;;;;;;;15.50;11.33;;;;;;;7.59;100.00;96567.28;6181519;23;20345;-87
2023/04/17 01:57:15;;;;;;;15.47;10.93;;;;;;;7.68;100.00;96564.72;6156905;23;20024;-88
2023/04/17 01:59:40;;;;;;;14.77;11.37;;;;;;;7.72;100.00;96553.00;6156909;23;20021;-88
2023/04/17 02:02:07;;;;;;;14.77;11.53;;;;;;;7.77;100.00;96565.69;6161635;23;20002;-88
2023/04/17 02:04:32;;;;;;;18.57;12.47;;;;;;;7.75;100.00;96565.00;6184380;23;20013;-88
2023/04/17 02:07:15;;;;;;;15.13;10.57;;;;;;;7.70;100.00;96575.03;6158375;23;20800;-87
2023/04/17 02:09:41;;;;;;;16.13;11.80;;;;;;;7.77;100.00;96563.88;6158486;23;20043;-88
2023/04/17 02:12:06;;;;;;;15.73;11.10;;;;;;;7.74;100.00;96565.94;6157768;23;20013;-87
2023/04/17 02:14:32;;;;;;;14.57;11.20;;;;;;;7.85;100.00;96567.66;6159106;23;20216;-88
2023/04/17 02:16:58;;;;;;;18.80;12.13;;;;;;;7.86;100.00;96558.81;6183025;23;20013;-88
2023/04/17 02:19:25;;;;;;;14.63;10.90;;;;;;;7.79;100.00;96564.59;6183129;23;20013;-88
2023/04/17 02:21:50;;;;;;;17.03;12.20;;;;;;;7.77;100.00;96563.88;6181284;23;20369;-88
2023/04/17 02:24:16;;;;;;;15.80;11.97;;;;;;;7.65;100.00;96562.34;6158417;23;20028;-88
2023/04/17 02:26:41;;;;;;;17.07;11.97;;;;;;;7.76;100.00;96564.84;6182750;23;20020;-88
2023/04/17 02:29:07;;;;;;;17.47;11.83;;;;;;;7.72;100.00;96568.72;6159060;23;20017;-88
2023/04/17 02:31:33;;;;;;;16.97;11.50;;;;;;;7.75;100.00;96563.22;6157769;23;20091;-87
2023/04/17 02:33:58;;;;;;;18.53;12.97;;;;;;;7.67;100.00;96565.66;6180332;23;20024;-87
2023/04/17 02:36:26;;;;;;;17.20;12.67;;;;;;;7.74;100.00;96561.53;6158796;23;20013;-88
2023/04/17 02:38:58;;;;;;;18.67;13.03;;;;;;;7.62;100.00;96562.63;6132335;23;20020;-87
2023/04/17 02:41:24;;;;;;;18.27;13.67;;;;;;;7.73;100.00;96562.50;6182204;23;20016;-87
2023/04/17 02:43:50;;;;;;;23.47;14.33;;;;;;;7.84;100.00;96571.22;6157931;23;20041;-88
2023/04/17 02:46:17;;;;;;;17.03;13.03;;;;;;;7.70;100.00;96564.56;6158567;23;20348;-88
2023/04/17 02:48:42;;;;;;;21.60;13.20;;;;;;;7.64;100.00;96567.69;6158384;23;20011;-88
2023/04/17 02:51:08;;;;;;;16.73;12.30;;;;;;;7.63;100.00;96566.06;6157511;23;20044;-87
2023/04/17 02:53:34;;;;;;;18.03;13.53;;;;;;;7.71;100.00;96568.81;6158028;23;20008;-88
2023/04/17 02:56:00;;;;;;;19.50;14.03;;;;;;;7.71;100.00;96564.44;6181984;23;20126;-88
2023/04/17 02:58:27;;;;;;;18.63;13.60;;;;;;;7.70;100.00;96568.00;6182842;23;20041;-88
2023/04/17 03:01:01;;;;;;;18.03;13.03;;;;;;;7.64;100.00;96565.09;6157460;23;20013;-88
2023/04/17 03:03:29;;;;;;;19.97;13.47;;;;;;;7.70;100.00;96557.53;6180229;23;20047;-87
2023/04/17 03:05:56;;;;;;;21.03;14.40;;;;;;;7.69;100.00;96566.34;6159923;23;20083;-87
2023/04/17 03:08:23;;;;;;;21.40;15.43;;;;;;;7.83;100.00;96562.53;6175476;23;20024;-88
2023/04/17 03:10:52;;;;;;;20.97;14.83;;;;;;;7.67;100.00;96565.66;6186482;23;20042;-87
2023/04/17 03:13:17;;;;;;;21.53;15.03;;;;;;;7.72;100.00;96563.47;6197900;23;20036;-87
2023/04/17 03:15:43;;;;;;;21.30;14.33;;;;;;;7.68;100.00;96562.09;6182098;23;20020;-87
2023/04/17 03:18:09;;;;;;;21.57;14.97;;;;;;;7.74;100.00;96566.75;6180779;23;20023;-88
2023/04/17 03:20:34;;;;;;;20.97;14.77;;;;;;;7.81;100.00;96561.81;6181114;23;20013;-88
2023/04/17 03:23:00;;;;;;;22.50;16.83;;;;;;;7.75;100.00;96562.38;6180976;23;20645;-88
2023/04/17 03:25:26;;;;;;;22.33;15.87;;;;;;;7.73;100.00;96562.50;6131914;23;20005;-87
2023/04/17 03:27:52;;;;;;;23.87;15.23;;;;;;;7.68;100.00;96561.22;6180972;23;20731;-88
2023/04/17 03:30:20;;;;;;;20.17;14.47;;;;;;;7.79;100.00;96563.75;6186422;23;20017;-93
2023/04/17 03:32:48;;;;;;;21.57;15.17;;;;;;;7.63;100.00;96561.66;6190191;23;20509;-92
2023/04/17 03:35:14;;;;;;;21.37;15.70;;;;;;;7.60;100.00;96564.53;6187765;23;20021;-93
2023/04/17 03:37:40;;;;;;;20.60;14.60;;;;;;;7.65;100.00;96558.91;6186559;23;20020;-93
2023/04/17 03:40:06;;;;;;;21.47;15.13;;;;;;;7.60;100.00;96561.91;6161824;23;20391;-93
2023/04/17 03:42:32;;;;;;;24.47;18.20;;;;;;;7.63;100.00;96568.69;6189833;23;20017;-93
2023/04/17 03:45:00;;;;;;;25.33;17.10;;;;;;;7.70;100.00;96572.41;6199498;23;20013;-93
2023/04/17 03:47:28;;;;;;;23.97;16.50;;;;;;;7.67;100.00;96576.13;6164206;23;20009;-93
2023/04/17 03:49:54;;;;;;;23.33;16.80;;;;;;;7.59;100.00;96573.34;6186158;23;20017;-93
2023/04/17 03:52:21;;;;;;;21.57;16.00;;;;;;;7.68;100.00;96569.94;6161281;23;20024;-93
2023/04/17 03:54:52;;;;;;;23.03;14.80;;;;;;;7.67;100.00;96573.50;6187534;23;20012;-93
2023/04/17 03:57:18;;;;;;;19.83;13.77;;;;;;;7.62;100.00;96570.47;6161909;23;20013;-93
2023/04/17 03:59:44;;;;;;;20.87;14.77;;;;;;;7.57;100.00;96570.03;6187758;23;20017;-95
2023/04/17 04:02:09;;;;;;;21.40;15.43;;;;;;;7.56;100.00;96571.00;6187759;23;20005;-96
2023/04/17 04:04:35;;;;;;;19.47;14.67;;;;;;;7.63;100.00;96579.97;6164598;23;20029;-95
2023/04/17 04:07:07;;;;;;;20.07;14.20;;;;;;;7.66;100.00;96577.09;6187916;23;20005;-95
2023/04/17 04:09:34;;;;;;;23.30;15.97;;;;;;;7.62;100.00;96577.50;6165257;23;20052;-95
2023/04/17 04:12:01;;;;;;;20.43;13.73;;;;;;;7.72;100.00;96581.78;6189024;23;20036;-95
2023/04/17 04:18:17;;;;;;;19.83;14.40;;;;;;;7.70;100.00;96581.09;6188686;23;20051;-95
2023/04/17 04:24:30;;;;;;;20.40;14.30;;;;;;;7.72;100.00;96584.41;6189616;23;20345;-95
2023/04/17 04:27:03;;;;;;;18.87;13.53;;;;;;;7.71;100.00;96587.16;6163015;23;20120;-95
2023/04/17 04:29:32;;;;;;;22.08;13.88;;;;;;;7.89;100.00;96587.34;6188138;23;20012;-95
2023/04/17 04:32:01;;;;;;;20.60;14.40;;;;;;;7.89;100.00;96589.97;6163997;23;20024;-95
2023/04/17 04:34:35;;;;;;;18.53;13.17;;;;;;;7.86;100.00;96590.25;6188080;23;20012;-95
2023/04/17 04:37:03;;;;;;;20.30;13.40;;;;;;;7.74;100.00;96587.72;6161262;23;20340;-93
2023/04/17 04:39:37;;;;;;;20.57;13.73;;;;;;;7.79;100.00;96590.78;6163008;23;20012;-93
2023/04/17 04:42:40;;;;;;;20.83;14.40;;;;;;;7.69;100.00;96594.31;6161475;23;20020;-93
2023/04/17 04:45:13;;;;;;;19.83;12.73;;;;;;;7.83;100.00;96596.56;6158788;23;20013;-74
2023/04/17 05:18:27;;;;;;;18.37;12.40;;;;;;;7.80;100.00;96621.22;6188353;23;20107;-89
2023/04/17 05:21:26;;;;;;;19.10;11.70;;;;;;;7.79;100.00;96616.94;6179288;23;20002;-93
2023/04/17 05:23:53;;;;;;;18.87;12.03;;;;;;;7.73;100.00;96606.19;6184955;23;20021;-93
2023/04/17 05:26:28;;;;;;;17.03;11.37;;;;;;;7.71;100.00;96618.56;6199484;23;20493;-92
2023/04/17 05:28:54;;;;;;;16.30;10.63;;;;;;;7.63;100.00;96624.47;6186752;23;20017;-93
2023/04/17 05:31:36;;;;;;;15.83;10.80;;;;;;;7.67;100.00;96620.63;6162263;23;20013;-93
2023/04/17 05:34:06;;;;;;;;;;;;;;;7.67;100.00;96620.63;6166157;23;20058;-92
2023/04/17 05:36:32;;;;;;;19.23;11.90;;;;;;;7.65;100.00;96626.97;6162014;23;19982;-93
2023/04/17 05:42:49;;;;;;;15.80;11.07;;;;;;;7.74;100.00;96626.97;6188007;23;20028;-93
2023/04/17 05:45:17;;;;;;;15.83;10.67;;;;;;;7.81;100.00;96627.28;6186670;23;20012;-94
2023/04/17 05:47:43;;;;;;;17.90;11.53;;;;;;;7.70;100.00;96625.59;6162492;23;20015;-94
2023/04/17 05:50:09;;;;;;;18.40;11.07;;;;;;;7.80;100.00;96625.63;6161387;23;20020;-93
2023/04/17 05:52:35;;;;;;;15.93;10.60;;;;;;;7.80;100.00;96628.25;6185589;23;19997;-93
2023/04/17 05:55:12;;;;;;;18.40;11.40;;;;;;;7.78;100.00;96625.78;6160769;23;20016;-94
2023/04/17 05:57:45;;;;;;;17.40;10.63;;;;;;;7.85;100.00;96627.88;6161426;23;20017;-94
2023/04/17 06:00:21;;;;;;;14.32;7.72;;;;;;;7.77;100.00;96631.94;6186945;23;20017;-94
2023/04/17 06:03:05;;;;;;;17.97;11.97;;;;;;;7.81;100.00;96624.66;6162197;23;20009;-94
2023/04/17 06:05:35;;;;;;;17.53;11.83;;;;;;;7.72;100.00;96628.09;6186074;23;20020;-94
2023/04/17 06:08:02;;;;;;;16.77;10.50;;;;;;;7.73;100.00;96627.13;6161660;23;20020;-93
2023/04/17 06:10:28;;;;;;;17.33;10.73;;;;;;;7.84;100.00;96634.03;6162448;23;20321;-93
2023/04/17 06:12:54;;;;;;;16.47;11.57;;;;;;;7.84;100.00;96634.88;6163776;23;20013;-93
2023/04/17 06:15:35;;;;;;;15.90;10.70;;;;;;;7.74;100.00;96629.59;6163236;23;20020;-94
2023/04/17 06:18:01;;;;;;;17.23;11.63;;;;;;;7.82;100.00;96636.00;6161839;23;20504;-94
2023/04/17 06:20:27;;;;;;;16.43;11.53;;;;;;;7.90;100.00;96639.59;6184364;23;20052;-94
2023/04/17 06:22:52;;;;;;;17.27;11.50;;;;;;;7.96;100.00;96644.28;6160312;23;20023;-94
2023/04/17 06:25:18;;;;;;;17.70;11.60;;;;;;;7.97;100.00;96645.94;6184276;23;20674;-94
2023/04/17 06:27:44;;;;;;;16.33;11.50;;;;;;;8.08;100.00;96639.81;6186368;23;20013;-94
2023/04/17 06:30:14;;;;;;;18.10;12.50;;;;;;;8.10;100.00;96640.47;6160870;23;20070;-94
2023/04/17 06:32:52;;;;;;;18.40;11.43;;;;;;;8.16;100.00;96646.97;6169209;23;20013;-93
2023/04/17 06:35:18;;;;;;;14.60;10.60;;;;;;;8.08;100.00;96645.03;6207784;23;20084;-94
2023/04/17 06:38:00;;;;;;;15.03;10.63;;;;;;;8.06;100.00;96644.34;6202240;23;20021;-94
2023/04/17 06:40:26;;;;;;;13.90;9.73;;;;;;;8.14;100.00;96652.34;6184560;23;20407;-94
2023/04/17 06:42:53;;;;;;;15.63;10.63;;;;;;;8.18;100.00;96653.75;6160902;23;20013;-93
2023/04/17 06:45:20;;;;;;;16.00;10.70;;;;;;;8.18;100.00;96648.50;6186878;23;20112;-93
2023/04/17 06:47:48;;;;;;;14.83;10.33;;;;;;;8.18;100.00;96645.88;6162236;23;20440;-93
2023/04/17 06:50:17;;;;;;;12.53;8.90;;;;;;;8.21;100.00;96656.06;6161895;23;20437;-94
2023/04/17 06:52:42;;;;;;;13.17;9.30;;;;;;;8.22;100.00;96654.31;6186428;23;20088;-94
2023/04/17 06:55:09;;;;;;;14.70;9.63;;;;;;;8.32;100.00;96656.97;6187318;23;20005;-93
2023/04/17 06:57:34;;;;;;;13.20;9.60;;;;;;;8.38;100.00;96659.03;6196923;23;20001;-92
2023/04/17 07:00:03;;;;;;;12.53;9.00;;;;;;;8.34;100.00;96658.44;6212684;23;20017;-93
2023/04/17 07:02:28;;;;;;;13.37;9.23;;;;;;;8.36;100.00;96653.09;6211788;23;20005;-94
2023/04/17 07:04:56;;;;;;;13.50;9.77;;;;;;;8.29;100.00;96654.59;6211721;23;20031;-93
2023/04/17 07:07:21;;;;;;;14.00;9.73;;;;;;;8.31;100.00;96657.91;6185318;23;20012;-93
2023/04/17 07:09:47;;;;;;;13.67;10.30;;;;;;;8.49;100.00;96666.81;6211699;23;20005;-93
2023/04/17 07:12:14;;;;;;;13.17;8.73;;;;;;;8.35;100.00;96662.75;6184634;23;20027;-94
2023/04/17 07:14:39;;;;;;;12.30;8.80;;;;;;;8.46;100.00;96667.91;6210343;23;20001;-93
2023/04/17 07:17:06;;;;;;;11.70;8.73;;;;;;;8.61;100.00;96659.63;6207956;23;20054;-94
2023/04/17 07:19:33;;;;;;;11.73;8.37;;;;;;;8.56;100.00;96662.69;6184335;23;20032;-93
2023/04/17 07:21:59;;;;;;;11.73;8.30;;;;;;;8.61;100.00;96663.06;6200011;23;20032;-92
2023/04/17 07:24:25;;;;;;;14.40;8.90;;;;;;;8.72;100.00;96662.97;6172056;23;20009;-94
2023/04/17 07:26:51;;;;;;;11.93;7.43;;;;;;;8.60;100.00;96674.53;6182820;23;20095;-94
2023/04/17 07:29:18;;;;;;;10.90;7.60;;;;;;;8.67;100.00;96670.41;6182539;23;20012;-93
2023/04/17 07:31:46;;;;;;;13.07;9.27;;;;;;;8.76;100.00;96663.53;6180419;23;20091;-93
2023/04/17 07:34:12;;;;;;;9.93;6.87;;;;;;;8.67;100.00;96666.97;6155807;23;20179;-93
2023/04/17 07:36:39;;;;;;;12.33;8.67;;;;;;;8.81;100.00;96666.53;6180707;23;20032;-92
2023/04/17 07:39:06;;;;;;;12.73;8.10;;;;;;;8.79;100.00;96665.88;6180662;23;20023;-94
2023/04/17 07:41:32;;;;;;;10.93;7.67;;;;;;;8.79;100.00;96665.06;6206341;23;20009;-94
2023/04/17 07:44:02;;;;;;;11.47;8.37;;;;;;;8.79;100.00;96675.53;6207601;23;20024;-93
2023/04/17 07:46:27;;;;;;;11.73;8.03;;;;;;;9.02;100.00;96673.44;6183976;23;20012;-93
2023/04/17 07:48:54;;;;;;;12.07;7.70;;;;;;;9.24;100.00;96673.16;6182882;23;20015;-93
2023/04/17 07:51:20;;;;;;;11.60;8.37;;;;;;;9.41;100.00;96666.38;6181486;23;20048;-93
2023/04/17 07:53:46;;;;;;;11.33;8.30;;;;;;;9.23;100.00;96671.50;6182527;23;20048;-93
2023/04/17 07:56:13;;;;;;;10.73;8.13;;;;;;;9.46;100.00;96669.41;6182726;23;20005;-93
2023/04/17 07:58:38;;;;;;;11.17;8.43;;;;;;;9.66;100.00;96668.38;6182285;23;20028;-93
2023/04/17 08:01:04;;;;;;;9.83;7.03;;;;;;;9.55;100.00;96665.91;6204533;23;20009;-92
2023/04/17 08:03:31;;;;;;;10.57;7.33;;;;;;;9.78;100.00;96665.56;6177893;23;20039;-90
2023/04/17 08:05:58;;;;;;;10.13;6.80;;;;;;;9.79;100.00;96661.97;6203080;23;20024;-93
2023/04/17 08:08:24;;;;;;;12.07;7.40;;;;;;;9.69;100.00;96667.25;6205442;23;20001;-93
2023/04/17 08:10:50;;;;;;;11.70;8.60;;;;;;;9.58;100.00;96656.94;6181572;23;20073;-93
2023/04/17 08:13:15;;;;;;;11.07;8.00;;;;;;;9.62;100.00;96666.16;6183269;23;20024;-94
2023/04/17 08:15:42;;;;;;;11.40;8.30;;;;;;;9.58;100.00;96670.88;6184909;23;20009;-93
2023/04/17 08:18:11;;;;;;;12.40;7.97;;;;;;;9.41;100.00;96677.69;6187000;23;19993;-93
2023/04/17 08:20:37;;;;;;;9.00;6.70;;;;;;;9.52;100.00;96681.94;6184616;23;19997;-93
2023/04/17 08:23:03;;;;;;;10.70;6.90;;;;;;;9.41;100.00;96675.06;6168059;23;20517;-93
2023/04/17 08:25:35;;;;;;;8.60;6.10;;;;;;;9.57;100.00;96673.66;6161841;23;20012;-92
2023/04/17 08:28:01;;;;;;;9.97;6.27;;;;;;;9.55;100.00;96686.09;6184991;23;20071;-93
2023/04/17 08:30:27;;;;;;;10.40;5.80;;;;;;;9.41;100.00;96693.44;6161001;23;20085;-92
2023/04/17 08:32:54;;;;;;;8.57;5.97;;;;;;;9.59;100.00;96685.69;6185370;23;20005;-93
2023/04/17 08:35:20;;;;;;;7.33;5.03;;;;;;;9.64;100.00;96678.19;6160427;23;20015;-92
2023/04/17 08:37:45;;;;;;;8.63;5.47;;;;;;;9.66;100.00;96688.56;6185291;23;20013;-93
2023/04/17 08:40:12;;;;;;;8.77;5.40;;;;;;;9.63;100.00;96687.06;6160036;23;20042;-93
2023/04/17 08:42:59;;;;;;;8.60;4.93;;;;;;;9.69;100.00;96683.00;6160606;23;20493;-94
2023/04/17 08:45:25;;;;;;;950.03;536.33;;;;;;;9.87;100.00;96683.09;6186197;23;20096;-93
2023/04/17 08:47:58;;;;;;;1652.47;650.40;;;;;;;9.93;100.00;96679.09;6162696;23;20047;-95
2023/04/17 08:50:26;;;;;;;60.13;28.58;;;;;;;10.12;100.00;96678.97;6179069;23;20017;-94
2023/04/17 08:52:52;;;;;;;12.83;7.47;;;;;;;10.24;100.00;96682.25;6177656;23;20019;-95
2023/04/17 08:55:27;;;;;;;8.73;5.93;;;;;;;10.23;100.00;96675.31;6173121;23;20005;-95
2023/04/17 08:57:57;;;;;;;11.17;6.57;;;;;;;10.36;100.00;96681.97;6160761;23;20021;-94
2023/04/17 09:00:25;;;;;;;18.63;7.63;;;;;;;10.44;100.00;96678.59;6185430;23;20013;-94
2023/04/17 09:02:55;;;;;;;7.63;5.10;;;;;;;10.40;100.00;96682.50;6185390;23;20066;-94
2023/04/17 09:05:22;;;;;;;9.87;5.73;;;;;;;10.71;100.00;96682.16;6184431;23;20013;-95
2023/04/17 09:08:08;;;;;;;7.50;5.47;;;;;;;11.11;100.00;96676.44;6186454;23;20017;-95
2023/04/17 09:10:38;;;;;;;8.70;5.60;;;;;;;11.12;100.00;96674.63;6185288;23;20005;-95
2023/04/17 09:13:05;;;;;;;8.27;5.17;;;;;;;11.48;100.00;96672.78;6136003;23;20020;-94
2023/04/17 09:15:32;;;;;;;8.70;5.50;;;;;;;11.41;100.00;96661.22;6160303;23;20025;-94
2023/04/17 09:17:57;;;;;;;7.13;4.93;;;;;;;11.45;100.00;96663.38;6185399;23;20020;-94
2023/04/17 09:20:24;;;;;;;6.97;4.70;;;;;;;11.41;100.00;96664.66;6184346;23;20189;-94
2023/04/17 09:22:59;;;;;;;6.60;4.53;;;;;;;11.20;100.00;96667.66;6158783;23;20017;-94
2023/04/17 09:25:26;;;;;;;7.27;4.97;;;;;;;11.05;100.00;96666.53;6184447;23;20021;-94
2023/04/17 09:27:53;;;;;;;10.37;7.40;;;;;;;10.71;100.00;96674.25;6159290;23;20015;-94
2023/04/17 09:30:19;;;;;;;10.00;7.00;;;;;;;10.49;100.00;96675.50;6158345;23;20013;-94
2023/04/17 09:33:01;;;;;;;10.23;7.47;;;;;;;10.26;100.00;96685.59;6156978;23;20016;-94
2023/04/17 09:35:27;;;;;;;9.70;7.03;;;;;;;9.80;100.00;96689.91;6158468;23;20012;-93
2023/04/17 09:38:05;;;;;;;14.67;11.00;;;;;;;9.72;100.00;96695.84;6183012;23;20114;-93
2023/04/17 09:40:39;;;;;;;12.30;8.93;;;;;;;9.56;100.00;96699.09;6158298;23;20013;-93
2023/04/17 09:43:09;;;;;;;11.90;8.20;;;;;;;9.40;100.00;96710.16;6157523;23;20919;-92
2023/04/17 09:45:37;;;;;;;9.33;6.87;;;;;;;9.47;100.00;96705.19;6157692;23;20092;-92
2023/04/17 09:48:12;;;;;;;11.03;8.23;;;;;;;9.38;100.00;96706.00;6182134;23;20013;-92
2023/04/17 09:50:38;;;;;;;11.00;7.70;;;;;;;9.09;100.00;96708.69;6182693;23;20016;-92
2023/04/17 09:53:05;;;;;;;11.43;8.00;;;;;;;9.15;100.00;96710.72;6181428;23;20020;-92
2023/04/17 09:55:36;;;;;;;11.67;8.03;;;;;;;9.09;100.00;96717.38;6157509;23;20039;-92
2023/04/17 09:58:10;;;;;;;10.77;8.13;;;;;;;9.10;100.00;96708.53;6134075;23;20021;-84
2023/04/17 10:00:40;;;;;;;10.90;7.90;;;;;;;9.31;100.00;96716.25;6156438;23;20024;-84
2023/04/17 10:03:06;;;;;;;11.17;7.57;;;;;;;9.56;100.00;96706.16;6181847;23;20013;-84
2023/04/17 10:05:31;;;;;;;10.87;8.20;;;;;;;9.73;100.00;96705.41;6192633;23;20072;-85
2023/04/17 10:07:57;;;;;;;11.27;9.03;;;;;;;9.66;100.00;96704.31;6151556;23;20071;-84
2023/04/17 10:10:30;;;;;;;11.47;8.47;;;;;;;9.43;100.00;96703.81;6176980;23;20433;-84
2023/04/17 10:12:59;;;;;;;10.30;7.43;;;;;;;9.67;100.00;96691.03;6154465;23;20063;-84
2023/04/17 10:15:25;;;;;;;11.13;8.43;;;;;;;9.86;100.00;96689.34;6180601;23;20512;-84
2023/04/17 10:17:51;;;;;;;11.73;8.17;;;;;;;9.88;100.00;96692.63;6182065;23;20021;-84
2023/04/17 10:20:18;;;;;;;12.70;9.27;;;;;;;10.03;100.00;96693.00;6181815;23;20016;-84
2023/04/17 10:22:55;;;;;;;10.80;7.77;;;;;;;10.47;100.00;96685.34;6183712;23;20525;-84
2023/04/17 10:25:25;;;;;;;11.73;7.80;;;;;;;10.35;100.00;96689.97;6157390;23;20501;-84
2023/04/17 10:27:57;;;;;;;10.60;7.97;;;;;;;10.30;100.00;96686.97;6182362;23;20020;-92
2023/04/17 10:30:23;;;;;;;11.17;8.43;;;;;;;10.49;100.00;96675.50;6159634;23;20020;-92
2023/04/17 10:33:23;;;;;;;9.83;7.60;;;;;;;11.01;100.00;96675.69;6159501;23;20001;-93
2023/04/17 10:35:49;;;;;;;10.27;7.53;;;;;;;11.04;100.00;96670.97;6158716;23;20068;-95
2023/04/17 10:38:29;;;;;;;10.10;6.87;;;;;;;11.13;100.00;96666.56;6184039;23;20017;-89
2023/04/17 10:40:55;;;;;;;11.83;7.53;;;;;;;11.16;100.00;96660.19;6184079;23;20096;-93
2023/04/17 10:43:22;;;;;;;11.23;6.27;;;;;;;11.26;100.00;96645.94;6184061;23;20023;-92
2023/04/17 10:46:02;;;;;;;8.80;6.13;;;;;;;11.46;100.00;96649.22;6183596;23;20009;-93
2023/04/17 10:48:51;;;;;;;10.70;6.10;;;;;;;11.57;100.00;96643.72;6184757;23;20013;-94
2023/04/17 10:51:35;;;;;;;10.70;7.50;;;;;;;11.75;100.00;96642.81;6184021;23;20035;-93
2023/04/17 10:57:52;;;;;;;8.90;6.30;;;;;;;12.01;100.00;96635.75;6189850;23;19915;-94
2023/04/17 11:00:20;;;;;;;8.97;6.80;;;;;;;12.18;100.00;96633.16;6164592;23;20036;-94
2023/04/17 11:02:49;;;;;;;7.87;6.20;;;;;;;12.27;100.00;96640.09;6193237;23;20013;-94
2023/04/17 11:09:05;;;;;;;8.17;5.90;;;;;;;12.38;100.00;96633.72;6194557;23;20023;-94
2023/04/17 11:12:09;;;;;;;8.23;5.53;;;;;;;12.14;100.00;96630.03;6201295;23;20012;-94
2023/04/17 11:15:05;;;;;;;8.23;5.90;;;;;;;12.20;100.00;96631.19;6202453;23;20009;-93
2023/04/17 11:17:58;;;;;;;7.23;4.90;;;;;;;11.72;100.00;96622.06;6202823;23;20027;-93
2023/04/17 11:20:26;;;;;;;8.98;5.82;;;;;;;11.89;100.00;96623.81;6199054;23;20009;-93
2023/04/17 11:23:22;;;;;;;8.37;6.27;;;;;;;11.78;100.00;96626.69;6174183;23;20020;-93
2023/04/17 11:29:35;;;;;;;9.93;6.73;;;;;;;11.93;100.00;96626.97;6198399;23;20460;-93
2023/04/17 11:32:10;;;;;;;10.67;7.50;;;;;;;11.95;100.00;96617.91;6208140;23;20005;-93
2023/04/17 11:34:43;;;;;;;9.63;5.93;;;;;;;11.91;100.00;96628.94;6172829;23;20020;-93
2023/04/17 11:37:13;;;;;;;8.90;6.23;;;;;;;11.94;100.00;96620.72;6191225;23;20018;-93
2023/04/17 11:39:41;;;;;;;10.00;7.03;;;;;;;11.82;100.00;96629.84;6204357;23;20009;-92
2023/04/17 11:42:07;;;;;;;9.17;6.40;;;;;;;12.07;100.00;96628.16;6176090;23;20008;-94
2023/04/17 11:44:33;;;;;;;8.97;6.27;;;;;;;11.80;100.00;96629.97;6197309;23;20009;-94
2023/04/17 11:47:00;;;;;;;8.73;6.20;;;;;;;11.71;100.00;96621.22;6210650;23;20017;-94
2023/04/17 11:49:36;;;;;;;8.47;5.97;;;;;;;12.15;100.00;96618.50;6193145;23;20016;-94
2023/04/17 11:52:03;;;;;;;8.30;5.93;;;;;;;12.09;100.00;96616.47;6187905;23;20013;-94
2023/04/17 11:54:30;;;;;;;12.07;8.67;;;;;;;12.46;100.00;96621.38;6162479;23;20015;-94
2023/04/17 11:57:08;;;;;;;10.00;7.20;;;;;;;12.46;100.00;96621.38;6169681;23;20067;-94
2023/04/17 11:59:38;;;;;;;7.57;5.40;;;;;;;12.33;100.00;96623.63;6166196;23;20013;-94
2023/04/17 12:02:06;;;;;;;7.97;6.03;;;;;;;12.35;100.00;96619.03;6163182;23;20013;-94
2023/04/17 12:04:44;;;;;;;8.07;5.40;;;;;;;12.42;100.00;96625.31;6161966;23;20039;-94
2023/04/17 12:07:22;;;;;;;7.23;5.13;;;;;;;12.64;100.00;96617.78;6187231;23;20061;-93
2023/04/17 12:10:11;;;;;;;8.10;5.73;;;;;;;12.66;100.00;96613.16;6186762;23;20020;-93
2023/04/17 12:12:36;;;;;;;7.87;5.40;;;;;;;12.78;100.00;96613.69;6188205;23;20009;-93
2023/04/17 12:15:02;;;;;;;7.23;4.93;;;;;;;12.54;100.00;96612.66;6162062;23;20001;-94
2023/04/17 12:17:28;;;;;;;7.17;5.13;;;;;;;12.54;100.00;96610.03;6186772;23;20009;-94
2023/04/17 12:19:54;;;;;;;6.73;4.57;;;;;;;13.72;100.00;96599.09;6162244;23;20019;-93
2023/04/17 12:23:11;;;;;;;10.07;6.80;;;;;;;13.67;100.00;96594.31;6161578;23;20013;-93
2023/04/17 12:25:36;;;;;;;7.03;4.47;;;;;;;15.47;100.00;96588.72;6161280;23;20017;-93